sensor_id;sensor_type;location;lat;lon;timestamp;pressure;altitude;pressure_sealevel;temperature;humidity
5703;BME280;2876;51.738;10.050;2024-03-02T00:02:18;98085.38;;;8.02;96.38
5703;BME280;2876;51.738;10.050;2024-03-02T00:08:25;98080.34;;;8.19;96.39
5703;BME280;2876;51.738;10.050;2024-03-02T00:14:30;98083.16;;;7.93;96.92
5703;BME280;2876;51.738;10.050;2024-03-02T00:20:32;98083.28;;;8.11;96.88
5703;BME280;2876;51.738;10.050;2024-03-02T00:26:34;98082.19;;;7.87;97.05
5703;BME280;2876;51.738;10.050;2024-03-02T00:32:36;98083.47;;;7.71;98.65
5703;BME280;2876;51.738;10.050;2024-03-02T00:38:50;98084.31;;;7.65;97.95
5703;BME280;2876;51.738;10.050;2024-03-02T00:44:52;98078.81;;;7.60;98.25
5703;BME280;2876;51.738;10.050;2024-03-02T00:50:54;98081.47;;;7.60;98.35
5703;BME280;2876;51.738;10.050;2024-03-02T00:56:57;98082.75;;;7.51;98.95
5703;BME280;2876;51.738;10.050;2024-03-02T01:02:59;98089.34;;;7.42;99.55
5703;BME280;2876;51.738;10.050;2024-03-02T01:09:02;98091.53;;;7.58;99.37
5703;BME280;2876;51.738;10.050;2024-03-02T01:15:05;98097.25;;;7.68;98.53
5703;BME280;2876;51.738;10.050;2024-03-02T01:21:09;98096.91;;;7.51;99.87
5703;BME280;2876;51.738;10.050;2024-03-02T01:27:11;98103.84;;;7.52;99.57
5703;BME280;2876;51.738;10.050;2024-03-02T01:33:13;98097.50;;;7.53;99.24
5703;BME280;2876;51.738;10.050;2024-03-02T01:39:15;98098.56;;;7.46;98.99
5703;BME280;2876;51.738;10.050;2024-03-02T01:45:18;98093.59;;;7.49;98.91
5703;BME280;2876;51.738;10.050;2024-03-02T01:51:20;98095.50;;;7.35;99.13
5703;BME280;2876;51.738;10.050;2024-03-02T01:57:22;98089.59;;;7.20;99.85
5703;BME280;2876;51.738;10.050;2024-03-02T02:03:24;98085.50;;;7.11;100.00
5703;BME280;2876;51.738;10.050;2024-03-02T02:09:26;98085.50;;;7.18;99.67
5703;BME280;2876;51.738;10.050;2024-03-02T02:15:30;98086.94;;;7.07;99.75
5703;BME280;2876;51.738;10.050;2024-03-02T02:21:32;98072.81;;;6.93;100.00
5703;BME280;2876;51.738;10.050;2024-03-02T02:27:34;98062.56;;;6.97;99.84
5703;BME280;2876;51.738;10.050;2024-03-02T02:33:40;98055.09;;;7.32;100.00
5703;BME280;2876;51.738;10.050;2024-03-02T02:39:42;98055.66;;;7.47;99.83
5703;BME280;2876;51.738;10.050;2024-03-02T02:45:44;98051.00;;;7.36;100.00
5703;BME280;2876;51.738;10.050;2024-03-02T02:51:46;98051.75;;;7.50;99.62
5703;BME280;2876;51.738;10.050;2024-03-02T02:57:48;98042.75;;;7.44;99.83
5703;BME280;2876;51.738;10.050;2024-03-02T03:03:50;98041.31;;;7.42;99.61
5703;BME280;2876;51.738;10.050;2024-03-02T03:09:52;98038.66;;;7.35;99.61
5703;BME280;2876;51.738;10.050;2024-03-02T03:15:55;98038.94;;;7.27;99.71
5703;BME280;2876;51.738;10.050;2024-03-02T03:21:57;98043.88;;;7.10;100.00
5703;BME280;2876;51.738;10.050;2024-03-02T03:27:59;98045.16;;;7.01;100.00
5703;BME280;2876;51.738;10.050;2024-03-02T03:34:01;98050.69;;;6.93;100.00
5703;BME280;2876;51.738;10.050;2024-03-02T03:40:03;98052.94;;;6.96;100.00
5703;BME280;2876;51.738;10.050;2024-03-02T03:46:11;98055.00;;;6.80;100.00
5703;BME280;2876;51.738;10.050;2024-03-02T03:52:13;98048.44;;;6.63;100.00
5703;BME280;2876;51.738;10.050;2024-03-02T03:58:16;98049.91;;;6.52;100.00
5703;BME280;2876;51.738;10.050;2024-03-02T04:04:23;98036.59;;;6.39;100.00
5703;BME280;2876;51.738;10.050;2024-03-02T04:10:25;98044.56;;;6.39;100.00
5703;BME280;2876;51.738;10.050;2024-03-02T04:16:27;98044.19;;;6.22;100.00
5703;BME280;2876;51.738;10.050;2024-03-02T04:22:30;98049.91;;;6.19;100.00
5703;BME280;2876;51.738;10.050;2024-03-02T04:28:34;98048.06;;;6.20;100.00
5703;BME280;2876;51.738;10.050;2024-03-02T04:34:36;98049.28;;;6.17;100.00
5703;BME280;2876;51.738;10.050;2024-03-02T04:40:38;98053.19;;;6.41;100.00
5703;BME280;2876;51.738;10.050;2024-03-02T04:46:40;98047.84;;;6.15;100.00
5703;BME280;2876;51.738;10.050;2024-03-02T04:52:42;98050.53;;;6.28;100.00
5703;BME280;2876;51.738;10.050;2024-03-02T04:58:44;98043.97;;;6.44;100.00
5703;BME280;2876;51.738;10.050;2024-03-02T05:04:46;98050.69;;;6.00;100.00
5703;BME280;2876;51.738;10.050;2024-03-02T05:10:49;98060.31;;;6.01;100.00
5703;BME280;2876;51.738;10.050;2024-03-02T05:16:51;98058.38;;;5.68;100.00
5703;BME280;2876;51.738;10.050;2024-03-02T05:22:53;98057.72;;;5.59;100.00
5703;BME280;2876;51.738;10.050;2024-03-02T05:28:55;98067.72;;;5.51;100.00
5703;BME280;2876;51.738;10.050;2024-03-02T05:34:57;98053.09;;;5.33;100.00
5703;BME280;2876;51.738;10.050;2024-03-02T05:40:59;98055.94;;;5.25;100.00
5703;BME280;2876;51.738;10.050;2024-03-02T05:47:01;98064.78;;;5.39;100.00
5703;BME280;2876;51.738;10.050;2024-03-02T05:53:03;98081.78;;;5.45;100.00
5703;BME280;2876;51.738;10.050;2024-03-02T05:59:05;98072.16;;;5.37;100.00
5703;BME280;2876;51.738;10.050;2024-03-02T06:05:18;98056.41;;;5.42;100.00
5703;BME280;2876;51.738;10.050;2024-03-02T06:11:20;98064.19;;;5.44;100.00
5703;BME280;2876;51.738;10.050;2024-03-02T06:17:22;98076.13;;;5.54;100.00
5703;BME280;2876;51.738;10.050;2024-03-02T06:23:24;98075.03;;;5.49;100.00
5703;BME280;2876;51.738;10.050;2024-03-02T06:29:26;98084.69;;;5.50;100.00
5703;BME280;2876;51.738;10.050;2024-03-02T06:35:28;98079.66;;;5.75;100.00
5703;BME280;2876;51.738;10.050;2024-03-02T06:41:30;98086.81;;;5.74;100.00
5703;BME280;2876;51.738;10.050;2024-03-02T06:47:32;98087.25;;;5.84;100.00
5703;BME280;2876;51.738;10.050;2024-03-02T06:53:34;98105.72;;;5.93;100.00
5703;BME280;2876;51.738;10.050;2024-03-02T06:59:36;98106.63;;;6.20;100.00
5703;BME280;2876;51.738;10.050;2024-03-02T07:05:38;98105.22;;;6.50;100.00
5703;BME280;2876;51.738;10.050;2024-03-02T07:11:40;98104.19;;;6.58;100.00
5703;BME280;2876;51.738;10.050;2024-03-02T07:17:42;98120.38;;;6.76;100.00
5703;BME280;2876;51.738;10.050;2024-03-02T07:23:44;98131.25;;;6.88;100.00
5703;BME280;2876;51.738;10.050;2024-03-02T07:29:46;98128.16;;;7.11;100.00
5703;BME280;2876;51.738;10.050;2024-03-02T07:35:48;98135.56;;;7.22;100.00
5703;BME280;2876;51.738;10.050;2024-03-02T07:41:50;98145.53;;;7.40;100.00
5703;BME280;2876;51.738;10.050;2024-03-02T07:47:53;98147.38;;;7.53;100.00
5703;BME280;2876;51.738;10.050;2024-03-02T07:53:55;98152.22;;;7.82;100.00
5703;BME280;2876;51.738;10.050;2024-03-02T07:59:57;98162.84;;;8.34;100.00
5703;BME280;2876;51.738;10.050;2024-03-02T08:06:01;98165.75;;;8.32;100.00
5703;BME280;2876;51.738;10.050;2024-03-02T08:12:03;98165.81;;;8.89;100.00
5703;BME280;2876;51.738;10.050;2024-03-02T08:18:06;98174.16;;;9.68;95.27
5703;BME280;2876;51.738;10.050;2024-03-02T08:24:08;98176.16;;;9.72;94.17
5703;BME280;2876;51.738;10.050;2024-03-02T08:30:11;98176.44;;;10.37;90.01
5703;BME280;2876;51.738;10.050;2024-03-02T08:36:13;98167.28;;;11.10;86.49
5703;BME280;2876;51.738;10.050;2024-03-02T08:42:15;98173.97;;;11.43;83.92
5703;BME280;2876;51.738;10.050;2024-03-02T08:48:17;98187.13;;;11.80;82.28
5703;BME280;2876;51.738;10.050;2024-03-02T08:54:22;98192.53;;;11.91;81.07
5703;BME280;2876;51.738;10.050;2024-03-02T09:00:25;98196.84;;;12.04;81.20
5703;BME280;2876;51.738;10.050;2024-03-02T09:06:27;98195.56;;;11.83;80.98
5703;BME280;2876;51.738;10.050;2024-03-02T09:12:29;98199.66;;;12.38;79.61
5703;BME280;2876;51.738;10.050;2024-03-02T09:18:31;98197.13;;;12.31;78.74
5703;BME280;2876;51.738;10.050;2024-03-02T09:24:33;98201.88;;;12.69;78.51
5703;BME280;2876;51.738;10.050;2024-03-02T09:30:35;98199.94;;;12.82;77.29
5703;BME280;2876;51.738;10.050;2024-03-02T09:36:37;98199.03;;;12.93;75.62
5703;BME280;2876;51.738;10.050;2024-03-02T09:42:40;98207.47;;;12.97;75.60
5703;BME280;2876;51.738;10.050;2024-03-02T09:48:44;98199.94;;;12.82;74.83
5703;BME280;2876;51.738;10.050;2024-03-02T09:54:47;98210.22;;;12.56;74.93
5703;BME280;2876;51.738;10.050;2024-03-02T10:00:50;98203.28;;;12.89;75.15
5703;BME280;2876;51.738;10.050;2024-03-02T10:07:17;98209.09;;;13.14;74.19
5703;BME280;2876;51.738;10.050;2024-03-02T10:13:19;98220.97;;;13.30;74.36
5703;BME280;2876;51.738;10.050;2024-03-02T10:19:26;98222.06;;;13.85;72.03
5703;BME280;2876;51.738;10.050;2024-03-02T10:25:33;98223.38;;;13.99;71.44
5703;BME280;2876;51.738;10.050;2024-03-02T10:31:39;98222.41;;;14.10;70.35
5703;BME280;2876;51.738;10.050;2024-03-02T10:37:42;98219.28;;;14.40;69.84
5703;BME280;2876;51.738;10.050;2024-03-02T10:43:45;98220.41;;;14.93;67.98
5703;BME280;2876;51.738;10.050;2024-03-02T10:49:51;98223.25;;;15.68;65.01
5703;BME280;2876;51.738;10.050;2024-03-02T10:55:58;98225.44;;;16.23;63.14
5703;BME280;2876;51.738;10.050;2024-03-02T11:02:05;98226.75;;;16.73;61.24
5703;BME280;2876;51.738;10.050;2024-03-02T11:08:16;98236.06;;;17.18;57.77
5703;BME280;2876;51.738;10.050;2024-03-02T11:14:24;98229.81;;;17.94;58.11
5703;BME280;2876;51.738;10.050;2024-03-02T11:20:27;98227.00;;;18.20;55.36
5703;BME280;2876;51.738;10.050;2024-03-02T11:26:38;98230.22;;;18.32;54.65
5703;BME280;2876;51.738;10.050;2024-03-02T11:32:41;98239.31;;;19.16;52.06
5703;BME280;2876;51.738;10.050;2024-03-02T11:38:44;98235.78;;;20.13;48.85
5703;BME280;2876;51.738;10.050;2024-03-02T11:44:48;98228.81;;;20.93;46.17
5703;BME280;2876;51.738;10.050;2024-03-02T11:50:51;98223.19;;;20.65;45.57
5703;BME280;2876;51.738;10.050;2024-03-02T11:56:54;98228.66;;;20.17;46.96
5703;BME280;2876;51.738;10.050;2024-03-02T12:03:05;98223.72;;;20.67;46.32
5703;BME280;2876;51.738;10.050;2024-03-02T12:09:09;98217.97;;;20.50;45.20
5703;BME280;2876;51.738;10.050;2024-03-02T12:15:14;98202.44;;;20.69;45.25
5703;BME280;2876;51.738;10.050;2024-03-02T12:21:16;98196.09;;;20.74;45.44
5703;BME280;2876;51.738;10.050;2024-03-02T12:27:18;98198.22;;;21.15;44.09
5703;BME280;2876;51.738;10.050;2024-03-02T12:33:23;98196.22;;;21.20;43.29
5703;BME280;2876;51.738;10.050;2024-03-02T12:39:25;98187.09;;;19.54;46.36
5703;BME280;2876;51.738;10.050;2024-03-02T12:45:28;98184.94;;;19.50;46.53
5703;BME280;2876;51.738;10.050;2024-03-02T12:51:30;98182.41;;;20.60;44.64
5703;BME280;2876;51.738;10.050;2024-03-02T12:57:33;98171.91;;;22.03;42.87
5703;BME280;2876;51.738;10.050;2024-03-02T13:03:40;98169.84;;;23.98;36.64
5703;BME280;2876;51.738;10.050;2024-03-02T13:09:42;98179.41;;;25.62;34.15
5703;BME280;2876;51.738;10.050;2024-03-02T13:15:45;98166.63;;;26.43;32.89
5703;BME280;2876;51.738;10.050;2024-03-02T13:21:47;98171.38;;;26.84;32.38
5703;BME280;2876;51.738;10.050;2024-03-02T13:27:49;98156.03;;;27.70;30.50
5703;BME280;2876;51.738;10.050;2024-03-02T13:33:51;98154.88;;;27.05;30.37
5703;BME280;2876;51.738;10.050;2024-03-02T13:39:53;98150.00;;;27.77;29.30
5703;BME280;2876;51.738;10.050;2024-03-02T13:45:55;98148.16;;;27.93;30.10
5703;BME280;2876;51.738;10.050;2024-03-02T13:51:57;98138.59;;;27.21;31.10
5703;BME280;2876;51.738;10.050;2024-03-02T13:58:02;98139.22;;;28.09;30.18
5703;BME280;2876;51.738;10.050;2024-03-02T14:04:04;98134.97;;;26.37;31.13
5703;BME280;2876;51.738;10.050;2024-03-02T14:10:07;98126.84;;;26.49;31.64
5703;BME280;2876;51.738;10.050;2024-03-02T14:16:11;98124.47;;;26.60;31.40
5703;BME280;2876;51.738;10.050;2024-03-02T14:22:13;98120.63;;;25.46;33.36
5703;BME280;2876;51.738;10.050;2024-03-02T14:28:18;98102.00;;;24.04;35.81
5703;BME280;2876;51.738;10.050;2024-03-02T14:34:41;98108.00;;;24.15;35.61
5703;BME280;2876;51.738;10.050;2024-03-02T14:40:43;98107.88;;;22.95;38.02
5703;BME280;2876;51.738;10.050;2024-03-02T14:46:48;98104.31;;;21.53;40.09
5703;BME280;2876;51.738;10.050;2024-03-02T14:52:51;98092.47;;;20.60;42.26
5703;BME280;2876;51.738;10.050;2024-03-02T14:58:53;98086.47;;;20.20;42.87
5703;BME280;2876;51.738;10.050;2024-03-02T15:04:55;98083.72;;;20.63;42.28
5703;BME280;2876;51.738;10.050;2024-03-02T15:10:57;98086.53;;;20.58;42.96
5703;BME280;2876;51.738;10.050;2024-03-02T15:17:01;98080.44;;;20.23;43.45
5703;BME280;2876;51.738;10.050;2024-03-02T15:23:04;98074.63;;;19.68;44.27
5703;BME280;2876;51.738;10.050;2024-03-02T15:29:06;98080.13;;;18.71;45.32
5703;BME280;2876;51.738;10.050;2024-03-02T15:35:08;98075.53;;;18.71;45.93
5703;BME280;2876;51.738;10.050;2024-03-02T15:41:10;98081.88;;;18.91;46.19
5703;BME280;2876;51.738;10.050;2024-03-02T15:47:12;98073.53;;;19.40;45.43
5703;BME280;2876;51.738;10.050;2024-03-02T15:53:14;98070.00;;;20.68;42.38
5703;BME280;2876;51.738;10.050;2024-03-02T15:59:16;98076.19;;;22.22;39.97
5703;BME280;2876;51.738;10.050;2024-03-02T16:05:18;98079.38;;;22.74;38.22
5703;BME280;2876;51.738;10.050;2024-03-02T16:11:22;98068.63;;;21.91;39.86
5703;BME280;2876;51.738;10.050;2024-03-02T16:17:24;98053.88;;;20.34;43.30
5703;BME280;2876;51.738;10.050;2024-03-02T16:23:26;98051.91;;;20.40;43.63
5703;BME280;2876;51.738;10.050;2024-03-02T16:29:28;98052.50;;;18.93;46.06
5703;BME280;2876;51.738;10.050;2024-03-02T16:35:30;98048.25;;;16.46;52.59
5703;BME280;2876;51.738;10.050;2024-03-02T16:41:32;98046.38;;;15.59;54.03
5703;BME280;2876;51.738;10.050;2024-03-02T16:47:35;98042.88;;;14.41;57.74
5703;BME280;2876;51.738;10.050;2024-03-02T16:53:37;98046.31;;;13.61;60.19
5703;BME280;2876;51.738;10.050;2024-03-02T16:59:40;98051.34;;;12.97;61.99
5703;BME280;2876;51.738;10.050;2024-03-02T17:05:42;98051.13;;;12.64;62.97
5703;BME280;2876;51.738;10.050;2024-03-02T17:11:44;98057.78;;;12.28;64.42
5703;BME280;2876;51.738;10.050;2024-03-02T17:17:46;98064.50;;;11.85;66.02
5703;BME280;2876;51.738;10.050;2024-03-02T17:23:48;98060.84;;;11.51;68.15
5703;BME280;2876;51.738;10.050;2024-03-02T17:29:50;98073.84;;;11.07;70.64
5703;BME280;2876;51.738;10.050;2024-03-02T17:35:52;98079.09;;;10.79;70.98
5703;BME280;2876;51.738;10.050;2024-03-02T17:41:55;98081.44;;;10.33;73.65
5703;BME280;2876;51.738;10.050;2024-03-02T17:47:58;98077.06;;;10.21;74.47
5703;BME280;2876;51.738;10.050;2024-03-02T17:53:59;98080.97;;;10.06;75.13
5703;BME280;2876;51.738;10.050;2024-03-02T18:00:02;98083.13;;;9.68;76.87
5703;BME280;2876;51.738;10.050;2024-03-02T18:06:05;98088.56;;;9.61;76.84
5703;BME280;2876;51.738;10.050;2024-03-02T18:12:07;98094.19;;;9.53;77.20
5703;BME280;2876;51.738;10.050;2024-03-02T18:18:10;98089.06;;;9.70;75.90
5703;BME280;2876;51.738;10.050;2024-03-02T18:24:12;98082.66;;;9.71;75.63
5703;BME280;2876;51.738;10.050;2024-03-02T18:30:14;98077.16;;;9.84;74.95
5703;BME280;2876;51.738;10.050;2024-03-02T18:36:16;98073.94;;;9.94;75.13
5703;BME280;2876;51.738;10.050;2024-03-02T18:42:18;98071.06;;;10.07;74.95
5703;BME280;2876;51.738;10.050;2024-03-02T18:48:21;98071.41;;;9.80;75.91
5703;BME280;2876;51.738;10.050;2024-03-02T18:54:23;98068.47;;;9.52;77.48
5703;BME280;2876;51.738;10.050;2024-03-02T19:00:25;98066.91;;;9.62;77.76
5703;BME280;2876;51.738;10.050;2024-03-02T19:06:27;98066.56;;;9.59;78.41
5703;BME280;2876;51.738;10.050;2024-03-02T19:12:30;98073.84;;;9.52;78.57
5703;BME280;2876;51.738;10.050;2024-03-02T19:18:32;98069.75;;;9.31;79.50
5703;BME280;2876;51.738;10.050;2024-03-02T19:24:37;98067.38;;;9.23;79.80
5703;BME280;2876;51.738;10.050;2024-03-02T19:30:39;98064.50;;;8.99;81.20
5703;BME280;2876;51.738;10.050;2024-03-02T19:36:46;98064.22;;;9.07;80.99
5703;BME280;2876;51.738;10.050;2024-03-02T19:42:48;98064.72;;;8.79;82.29
5703;BME280;2876;51.738;10.050;2024-03-02T19:48:50;98056.22;;;8.64;82.80
5703;BME280;2876;51.738;10.050;2024-03-02T19:54:52;98058.00;;;8.45;83.31
5703;BME280;2876;51.738;10.050;2024-03-02T20:00:54;98061.25;;;8.16;85.19
5703;BME280;2876;51.738;10.050;2024-03-02T20:06:57;98043.19;;;7.86;86.16
5703;BME280;2876;51.738;10.050;2024-03-02T20:12:59;98037.34;;;7.57;88.09
5703;BME280;2876;51.738;10.050;2024-03-02T20:19:06;98038.84;;;7.47;89.46
5703;BME280;2876;51.738;10.050;2024-03-02T20:25:09;98037.03;;;7.41;90.02
5703;BME280;2876;51.738;10.050;2024-03-02T20:31:15;98026.78;;;7.37;91.11
5703;BME280;2876;51.738;10.050;2024-03-02T20:37:17;98026.00;;;7.17;91.67
5703;BME280;2876;51.738;10.050;2024-03-02T20:43:25;98026.84;;;7.11;92.71
5703;BME280;2876;51.738;10.050;2024-03-02T20:49:27;98018.63;;;7.12;93.57
5703;BME280;2876;51.738;10.050;2024-03-02T20:55:33;98012.72;;;7.04;95.29
5703;BME280;2876;51.738;10.050;2024-03-02T21:01:36;98008.63;;;7.01;95.36
5703;BME280;2876;51.738;10.050;2024-03-02T21:07:38;98000.19;;;7.11;96.20
5703;BME280;2876;51.738;10.050;2024-03-02T21:13:41;97997.72;;;7.16;96.70
5703;BME280;2876;51.738;10.050;2024-03-02T21:19:44;97985.19;;;7.23;96.96
5703;BME280;2876;51.738;10.050;2024-03-02T21:25:46;97991.28;;;7.37;98.22
5703;BME280;2876;51.738;10.050;2024-03-02T21:31:51;97994.31;;;7.47;99.17
5703;BME280;2876;51.738;10.050;2024-03-02T21:38:00;98001.91;;;7.44;99.45
5703;BME280;2876;51.738;10.050;2024-03-02T21:44:04;97990.00;;;7.46;99.09
5703;BME280;2876;51.738;10.050;2024-03-02T21:50:07;97994.25;;;7.60;99.04
5703;BME280;2876;51.738;10.050;2024-03-02T21:56:09;97988.94;;;7.54;99.69
5703;BME280;2876;51.738;10.050;2024-03-02T22:02:13;97987.88;;;7.61;98.55
5703;BME280;2876;51.738;10.050;2024-03-02T22:08:15;97980.16;;;7.40;98.46
5703;BME280;2876;51.738;10.050;2024-03-02T22:14:18;97974.88;;;7.33;98.86
5703;BME280;2876;51.738;10.050;2024-03-02T22:20:23;97979.41;;;7.33;99.33
5703;BME280;2876;51.738;10.050;2024-03-02T22:26:25;97969.38;;;7.28;99.61
5703;BME280;2876;51.738;10.050;2024-03-02T22:32:27;97968.69;;;7.40;99.72
5703;BME280;2876;51.738;10.050;2024-03-02T22:38:29;97969.19;;;7.61;99.51
5703;BME280;2876;51.738;10.050;2024-03-02T22:44:31;97976.84;;;7.51;99.73
5703;BME280;2876;51.738;10.050;2024-03-02T22:50:35;97956.63;;;7.30;99.75
5703;BME280;2876;51.738;10.050;2024-03-02T22:56:37;97955.97;;;7.42;100.00
5703;BME280;2876;51.738;10.050;2024-03-02T23:02:39;97956.53;;;7.50;100.00
5703;BME280;2876;51.738;10.050;2024-03-02T23:08:41;97953.44;;;7.53;100.00
5703;BME280;2876;51.738;10.050;2024-03-02T23:14:44;97948.91;;;7.54;100.00
5703;BME280;2876;51.738;10.050;2024-03-02T23:20:47;97946.72;;;7.76;100.00
5703;BME280;2876;51.738;10.050;2024-03-02T23:26:49;97944.94;;;7.70;100.00
5703;BME280;2876;51.738;10.050;2024-03-02T23:32:52;97943.16;;;7.57;100.00
5703;BME280;2876;51.738;10.050;2024-03-02T23:38:54;97934.47;;;7.36;99.97
5703;BME280;2876;51.738;10.050;2024-03-02T23:44:56;97939.53;;;7.06;99.65
5703;BME280;2876;51.738;10.050;2024-03-02T23:50:58;97936.50;;;6.90;100.00
5703;BME280;2876;51.738;10.050;2024-03-02T23:57:00;97944.53;;;6.76;100.00
